KMGM/MGM METAR and TAF weather

Enter ICAO airport designator
Station Type Date Time Source
KMGM METAR 2022/11/30 10:15 UTC NOAA

KMGM 301015Z AUTO 25007KT 10SM VCTS -RA OVC020 23/21 A2993 RMK AO2 LTG DSNT ALQDS RAE0955B13 P0000 T02280206


Station Type Date Time Source
KMGM Decoded METAR 2022/11/30 10:15 UTC NOAA

MONTGOMERY DANNELLY FIELD, AL, United States (KMGM) 32-18N 86-24W 63M
Nov 30, 2022 - 05:15 AM EST / 2022.11.30 1015 UTC
Wind: from the WSW (250 degrees) at 8 MPH (7 KT):0
Visibility: 10 mile(s):0
Sky conditions: overcast
Weather: thunder in the vicinity; light rain; Lightning observed
Precipitation last hour: A trace
Temperature: 73.0 F (22.8 C)
Dew Point: 69.1 F (20.6 C)
Relative Humidity: 87%
Pressure (altimeter): 29.93 in. Hg (1013 hPa)
ob: KMGM 301015Z AUTO 25007KT 10SM VCTS -RA OVC020 23/21 A2993 RMK AO2 LTG DSNT ALQDS RAE0955B13 P0000 T02280206
cycle: 10

Station Type Date Time Source
KMGM TAF 2022/11/30 10:57 UTC NOAA

TAF
AMD KMGM 300954Z 3010/0106 22011G22KT P6SM SHRA OVC015
TEMPO 3010/3012 2SM TSRA BR OVC008CB
FM301400 26013G22KT 5SM BR VCSH OVC018
FM301700 33015G25KT P6SM FEW250
FM010200 35009KT P6SM SKC

Example: see airport list